Time;durP1;ratioP1;P1;durP2;ratioP2;P2;SDS_P1;SDS_P2;PMS_P1;PMS_P2;Temp;Humidity;BMP_temperature;BMP_pressure;BME280_temperature;BME280_humidity;BME280_pressure;Samples;Min_cycle;Max_cycle;Signal;HPM_P1;HPM_P2
2022/09/07 00:01:41;;;;;;;15.77;10.95;;;;;;;;;;4947787;28;20077;-85
2022/09/07 00:04:08;;;;;;;19.98;11.15;;;;;;;;;;4946038;28;20034;-86
2022/09/07 00:06:34;;;;;;;18.25;10.93;;;;;;;;;;4954733;28;20031;-86
2022/09/07 00:09:01;;;;;;;21.52;10.82;;;;;;;;;;4945651;28;20646;-86
2022/09/07 00:11:27;;;;;;;18.75;11.73;;;;;;;;;;4974148;28;20075;-85
2022/09/07 00:13:53;;;;;;;20.45;10.50;;;;;;;;;;4947112;28;20085;-85
2022/09/07 00:16:21;;;;;;;25.00;11.45;;;;;;;;;;4948133;28;20090;-85
2022/09/07 00:18:48;;;;;;;17.02;10.45;;;;;;;;;;4961055;28;20018;-85
2022/09/07 00:21:15;;;;;;;20.25;11.70;;;;;;;;;;4943855;28;20042;-87
2022/09/07 00:23:41;;;;;;;15.88;10.30;;;;;;;;;;4972201;28;20019;-86
2022/09/07 00:26:09;;;;;;;20.63;10.20;;;;;;;;;;4968285;28;20637;-86
2022/09/07 00:28:36;;;;;;;23.10;10.68;;;;;;;;;;4954878;28;20042;-86
2022/09/07 00:31:02;;;;;;;25.73;10.32;;;;;;;;;;4960618;28;21044;-85
2022/09/07 00:33:28;;;;;;;16.88;9.93;;;;;;;;;;4955212;28;20077;-85
2022/09/07 00:35:54;;;;;;;15.40;9.48;;;;;;;;;;4958815;28;20150;-86
2022/09/07 00:38:21;;;;;;;19.55;10.23;;;;;;;;;;4952468;28;20502;-85
2022/09/07 00:40:47;;;;;;;14.15;9.90;;;;;;;;;;4951802;28;20027;-86
2022/09/07 00:43:15;;;;;;;19.10;11.23;;;;;;;;;;4953115;28;20050;-85
2022/09/07 00:45:41;;;;;;;26.95;10.00;;;;;;;;;;4953129;28;20027;-85
2022/09/07 00:48:13;;;;;;;16.80;9.98;;;;;;;;;;4951507;28;20615;-86
2022/09/07 00:50:47;;;;;;;18.77;9.50;;;;;;;;;;4969765;28;20025;-85
2022/09/07 00:53:18;;;;;;;13.68;10.02;;;;;;;;;;4961179;28;20057;-85
2022/09/07 00:55:46;;;;;;;18.98;11.10;;;;;;;;;;4969318;28;20089;-85
2022/09/07 00:58:12;;;;;;;17.50;10.77;;;;;;;;;;4948761;28;20113;-85
2022/09/07 01:00:40;;;;;;;18.95;9.65;;;;;;;;;;4966942;28;20038;-87
2022/09/07 01:03:07;;;;;;;14.85;9.98;;;;;;;;;;4958642;28;20023;-84
2022/09/07 01:05:47;;;;;;;18.73;10.50;;;;;;;;;;4944154;28;20039;-85
2022/09/07 01:08:14;;;;;;;16.58;9.82;;;;;;;;;;4955991;28;20041;-85
2022/09/07 01:10:40;;;;;;;22.50;10.40;;;;;;;;;;4971132;28;20110;-86
2022/09/07 01:13:06;;;;;;;15.32;10.43;;;;;;;;;;4950818;28;20042;-86
2022/09/07 01:15:45;;;;;;;19.10;10.60;;;;;;;;;;4958198;28;20039;-86
2022/09/07 01:18:21;;;;;;;16.05;10.35;;;;;;;;;;4955581;28;20026;-85
2022/09/07 01:20:49;;;;;;;19.40;11.43;;;;;;;;;;4960324;28;20058;-85
2022/09/07 01:23:34;;;;;;;16.48;10.68;;;;;;;;;;4959655;28;20779;-85
2022/09/07 01:26:00;;;;;;;24.30;11.65;;;;;;;;;;4955245;28;20073;-86
2022/09/07 01:28:31;;;;;;;21.13;12.43;;;;;;;;;;4953896;28;20473;-85
2022/09/07 01:31:16;;;;;;;17.30;11.30;;;;;;;;;;4955535;28;20422;-87
2022/09/07 01:33:59;;;;;;;26.05;11.63;;;;;;;;;;4970040;28;20049;-85
2022/09/07 01:36:39;;;;;;;22.83;11.20;;;;;;;;;;4957925;28;20885;-86
2022/09/07 01:39:07;;;;;;;20.48;11.57;;;;;;;;;;4959850;28;20516;-85
2022/09/07 01:41:33;;;;;;;30.27;12.65;;;;;;;;;;4953988;28;20090;-86
2022/09/07 01:44:02;;;;;;;23.95;13.32;;;;;;;;;;4958590;28;20466;-88
2022/09/07 01:46:29;;;;;;;30.67;13.27;;;;;;;;;;4956936;28;20057;-88
2022/09/07 01:48:59;;;;;;;26.90;15.15;;;;;;;;;;4975431;28;20170;-86
2022/09/07 01:51:27;;;;;;;26.00;13.93;;;;;;;;;;4961989;28;20058;-86
2022/09/07 01:53:56;;;;;;;28.75;15.05;;;;;;;;;;4963806;28;20042;-86
2022/09/07 01:56:26;;;;;;;26.25;14.90;;;;;;;;;;4956185;28;20045;-87
2022/09/07 01:58:55;;;;;;;27.55;14.50;;;;;;;;;;4975045;28;20026;-87
2022/09/07 02:01:28;;;;;;;21.58;13.48;;;;;;;;;;4965699;28;20081;-86
2022/09/07 02:04:04;;;;;;;25.80;14.30;;;;;;;;;;4977627;28;20034;-87
2022/09/07 02:06:37;;;;;;;22.50;13.90;;;;;;;;;;4962032;28;20053;-86
2022/09/07 02:09:10;;;;;;;29.55;15.70;;;;;;;;;;4957364;28;20210;-87
2022/09/07 02:11:44;;;;;;;34.70;17.15;;;;;;;;;;4973866;28;20125;-88
2022/09/07 02:14:17;;;;;;;31.42;17.15;;;;;;;;;;4967309;28;20031;-87
2022/09/07 02:16:47;;;;;;;32.55;16.02;;;;;;;;;;4963655;28;20544;-87
2022/09/07 02:19:15;;;;;;;27.63;15.85;;;;;;;;;;4960844;28;20057;-85
2022/09/07 02:21:44;;;;;;;24.42;15.40;;;;;;;;;;4957549;28;20026;-87
2022/09/07 02:24:31;;;;;;;26.20;15.73;;;;;;;;;;4963356;28;20501;-88
2022/09/07 02:26:57;;;;;;;;;;;;;;;;;;4960440;28;20037;-89
2022/09/07 02:29:23;;;;;;;30.75;14.07;;;;;;;;;;4976982;28;19917;-90
2022/09/07 02:31:50;;;;;;;20.83;13.80;;;;;;;;;;4948748;28;20027;-89
2022/09/07 02:34:17;;;;;;;27.60;13.75;;;;;;;;;;4951196;28;20121;-89
2022/09/07 02:36:58;;;;;;;25.17;12.35;;;;;;;;;;4958456;28;20059;-88
2022/09/07 02:39:24;;;;;;;22.20;11.13;;;;;;;;;;4941390;28;20039;-89
2022/09/07 02:41:50;;;;;;;20.10;10.40;;;;;;;;;;4945068;28;20038;-89
2022/09/07 02:44:21;;;;;;;17.52;11.38;;;;;;;;;;4945355;28;20028;-87
2022/09/07 02:46:50;;;;;;;27.63;11.82;;;;;;;;;;4954483;28;20062;-90
2022/09/07 02:49:48;;;;;;;16.13;11.32;;;;;;;;;;4937341;28;20483;-90
2022/09/07 02:52:23;;;;;;;25.17;13.32;;;;;;;;;;4917186;28;20038;-89
2022/09/07 02:54:59;;;;;;;22.30;11.90;;;;;;;;;;4940374;28;20023;-89
2022/09/07 02:57:39;;;;;;;21.67;12.75;;;;;;;;;;4945506;28;20038;-88
2022/09/07 03:00:11;;;;;;;22.02;11.40;;;;;;;;;;4944783;28;20077;-89
2022/09/07 03:02:37;;;;;;;19.38;11.05;;;;;;;;;;4935815;28;20597;-88
2022/09/07 03:05:09;;;;;;;21.23;10.43;;;;;;;;;;4935939;28;20040;-90
2022/09/07 03:07:48;;;;;;;20.63;10.60;;;;;;;;;;4937824;28;20038;-88
2022/09/07 03:10:21;;;;;;;18.60;11.43;;;;;;;;;;4954290;28;20077;-88
2022/09/07 03:12:49;;;;;;;24.17;11.48;;;;;;;;;;4931325;28;20042;-88
2022/09/07 03:15:20;;;;;;;21.23;11.02;;;;;;;;;;4939203;28;20027;-88
2022/09/07 03:17:46;;;;;;;21.05;10.70;;;;;;;;;;4937532;28;20031;-87
2022/09/07 03:20:12;;;;;;;19.77;10.27;;;;;;;;;;4940693;28;20530;-88
2022/09/07 03:22:38;;;;;;;18.20;10.40;;;;;;;;;;4923288;28;20313;-90
2022/09/07 03:25:05;;;;;;;25.40;11.55;;;;;;;;;;4937801;28;20038;-88
2022/09/07 03:27:31;;;;;;;20.40;11.30;;;;;;;;;;4924156;28;20031;-88
2022/09/07 03:29:58;;;;;;;19.58;10.93;;;;;;;;;;4937319;28;20471;-88
2022/09/07 03:32:24;;;;;;;20.75;10.55;;;;;;;;;;4928575;28;20046;-87
2022/09/07 03:34:51;;;;;;;20.38;11.10;;;;;;;;;;4939671;28;20154;-87
2022/09/07 03:37:17;;;;;;;24.05;12.10;;;;;;;;;;4960022;28;20023;-90
2022/09/07 03:39:43;;;;;;;23.77;12.75;;;;;;;;;;4957457;28;20096;-86
2022/09/07 03:42:09;;;;;;;19.02;11.85;;;;;;;;;;4946939;28;20035;-88
2022/09/07 03:44:35;;;;;;;17.50;11.77;;;;;;;;;;4942189;28;20039;-89
2022/09/07 03:47:01;;;;;;;19.27;11.90;;;;;;;;;;4941736;28;20082;-88
2022/09/07 03:49:27;;;;;;;20.02;12.05;;;;;;;;;;4957983;28;20086;-87
2022/09/07 03:51:53;;;;;;;21.27;11.40;;;;;;;;;;4953399;28;20039;-89
2022/09/07 03:54:19;;;;;;;23.83;12.07;;;;;;;;;;4949030;28;20126;-91
2022/09/07 03:56:45;;;;;;;21.77;11.20;;;;;;;;;;4946333;28;20043;-90
2022/09/07 03:59:11;;;;;;;21.60;11.38;;;;;;;;;;4957375;28;20050;-88
2022/09/07 04:01:37;;;;;;;19.85;11.38;;;;;;;;;;4949152;28;20394;-88
2022/09/07 04:04:03;;;;;;;19.00;12.07;;;;;;;;;;4943186;28;20041;-88
2022/09/07 04:06:30;;;;;;;27.23;13.60;;;;;;;;;;4949772;28;20035;-87
2022/09/07 04:08:56;;;;;;;23.05;12.27;;;;;;;;;;4955953;28;20030;-87
2022/09/07 04:11:22;;;;;;;22.73;12.57;;;;;;;;;;4941341;28;20035;-89
2022/09/07 04:13:48;;;;;;;24.02;13.13;;;;;;;;;;4958322;28;20522;-88
2022/09/07 04:16:19;;;;;;;24.85;12.75;;;;;;;;;;4957096;28;20047;-88
2022/09/07 04:18:45;;;;;;;25.80;12.48;;;;;;;;;;4955718;28;20035;-88
2022/09/07 04:21:11;;;;;;;27.50;14.23;;;;;;;;;;4953087;28;20077;-89
2022/09/07 04:23:38;;;;;;;24.40;13.52;;;;;;;;;;4943666;28;20022;-87
2022/09/07 04:26:05;;;;;;;28.80;14.75;;;;;;;;;;4951723;28;20030;-87
2022/09/07 04:28:31;;;;;;;26.95;14.95;;;;;;;;;;4949507;28;20038;-86
2022/09/07 04:31:03;;;;;;;29.58;15.68;;;;;;;;;;4941698;28;20038;-87
2022/09/07 04:33:33;;;;;;;35.17;16.17;;;;;;;;;;4944421;28;20061;-87
2022/09/07 04:36:02;;;;;;;33.80;17.92;;;;;;;;;;4957824;28;20049;-86
2022/09/07 04:38:28;;;;;;;34.42;19.05;;;;;;;;;;4958653;28;20039;-88
2022/09/07 04:40:59;;;;;;;36.45;19.25;;;;;;;;;;4959868;28;21067;-89
2022/09/07 04:43:25;;;;;;;33.50;19.55;;;;;;;;;;4955679;28;20053;-87
2022/09/07 04:45:51;;;;;;;47.10;20.77;;;;;;;;;;4949212;28;20026;-87
2022/09/07 04:48:17;;;;;;;36.17;20.25;;;;;;;;;;4945038;28;20470;-88
2022/09/07 04:50:43;;;;;;;49.00;21.60;;;;;;;;;;4961227;28;20042;-88
2022/09/07 04:53:09;;;;;;;42.92;21.20;;;;;;;;;;4945320;28;20052;-88
2022/09/07 04:55:35;;;;;;;45.17;21.58;;;;;;;;;;4947028;28;20371;-89
2022/09/07 04:58:01;;;;;;;49.47;22.65;;;;;;;;;;4947661;28;20526;-86
2022/09/07 05:00:27;;;;;;;37.08;20.27;;;;;;;;;;4944960;28;20144;-87
2022/09/07 05:02:53;;;;;;;44.13;20.80;;;;;;;;;;4944773;28;20030;-87
2022/09/07 05:05:19;;;;;;;39.22;21.13;;;;;;;;;;4945710;28;20027;-87
2022/09/07 05:07:45;;;;;;;37.67;22.52;;;;;;;;;;4944078;28;20042;-86
2022/09/07 05:10:11;;;;;;;51.80;23.42;;;;;;;;;;4956658;28;20372;-87
2022/09/07 05:12:37;;;;;;;42.50;23.30;;;;;;;;;;4943304;28;20046;-86
2022/09/07 05:15:04;;;;;;;44.10;23.35;;;;;;;;;;4952836;28;20545;-89
2022/09/07 05:17:30;;;;;;;47.85;24.45;;;;;;;;;;4965644;28;20027;-86
2022/09/07 05:19:56;;;;;;;41.47;23.75;;;;;;;;;;4948025;28;20039;-87
2022/09/07 05:22:24;;;;;;;52.95;23.98;;;;;;;;;;4957895;28;20475;-87
2022/09/07 05:24:50;;;;;;;48.55;24.58;;;;;;;;;;4942674;28;20509;-86
2022/09/07 05:27:16;;;;;;;50.58;25.42;;;;;;;;;;4956833;28;20485;-86
2022/09/07 05:29:42;;;;;;;49.67;26.48;;;;;;;;;;4955364;28;20034;-87
2022/09/07 05:32:08;;;;;;;55.55;25.77;;;;;;;;;;4942065;28;20042;-87
2022/09/07 05:34:34;;;;;;;45.78;24.95;;;;;;;;;;4948058;28;20034;-87
2022/09/07 05:37:00;;;;;;;44.35;23.85;;;;;;;;;;4944220;28;20059;-87
2022/09/07 05:39:27;;;;;;;49.33;26.25;;;;;;;;;;4958161;28;20046;-87
2022/09/07 05:41:53;;;;;;;55.78;26.23;;;;;;;;;;4962691;28;20026;-89
2022/09/07 05:44:19;;;;;;;51.97;27.33;;;;;;;;;;4949732;28;20046;-89
2022/09/07 05:46:45;;;;;;;53.40;26.63;;;;;;;;;;4962616;28;20035;-89
2022/09/07 05:49:11;;;;;;;51.88;25.77;;;;;;;;;;4948362;28;20105;-87
2022/09/07 05:51:37;;;;;;;44.75;23.67;;;;;;;;;;4954487;28;20071;-86
2022/09/07 05:54:03;;;;;;;49.08;25.60;;;;;;;;;;4947531;28;20039;-86
2022/09/07 05:56:29;;;;;;;47.75;24.35;;;;;;;;;;4943091;28;20043;-88
2022/09/07 05:58:55;;;;;;;49.65;24.58;;;;;;;;;;4948723;28;20050;-86
2022/09/07 06:01:21;;;;;;;57.42;26.98;;;;;;;;;;4944917;28;20035;-87
2022/09/07 06:03:47;;;;;;;46.67;25.90;;;;;;;;;;4937966;28;20038;-87
2022/09/07 06:06:15;;;;;;;53.17;27.17;;;;;;;;;;4944988;28;20039;-86
2022/09/07 06:08:46;;;;;;;53.92;26.63;;;;;;;;;;4953413;28;20042;-88
2022/09/07 06:11:13;;;;;;;49.80;26.38;;;;;;;;;;4954518;28;20374;-87
2022/09/07 06:13:40;;;;;;;55.58;27.08;;;;;;;;;;4970992;28;20081;-88
2022/09/07 06:16:07;;;;;;;45.70;26.02;;;;;;;;;;4957363;28;20125;-87
2022/09/07 06:18:34;;;;;;;43.53;24.58;;;;;;;;;;4957359;28;20050;-89
2022/09/07 06:21:07;;;;;;;42.22;25.23;;;;;;;;;;4951239;28;20034;-86
2022/09/07 06:23:34;;;;;;;47.63;24.95;;;;;;;;;;4955678;28;20034;-86
2022/09/07 06:26:01;;;;;;;46.50;24.63;;;;;;;;;;4955550;28;20038;-87
2022/09/07 06:28:28;;;;;;;42.00;24.20;;;;;;;;;;4974647;28;20093;-86
2022/09/07 06:30:58;;;;;;;41.15;22.85;;;;;;;;;;4942553;28;20042;-88
2022/09/07 06:33:24;;;;;;;41.97;23.33;;;;;;;;;;4960742;28;20493;-86
2022/09/07 06:35:57;;;;;;;42.95;22.90;;;;;;;;;;4951031;28;20058;-87
2022/09/07 06:38:23;;;;;;;37.28;22.17;;;;;;;;;;4942131;28;20035;-86
2022/09/07 06:40:49;;;;;;;35.63;22.55;;;;;;;;;;4959744;28;20407;-87
2022/09/07 06:43:15;;;;;;;36.38;22.98;;;;;;;;;;4934824;28;20118;-89
2022/09/07 06:45:41;;;;;;;38.40;22.65;;;;;;;;;;4924679;28;20034;-87
2022/09/07 06:48:07;;;;;;;34.38;22.90;;;;;;;;;;4930929;28;20447;-86
2022/09/07 06:50:34;;;;;;;36.05;22.77;;;;;;;;;;4941828;28;21638;-88
2022/09/07 06:53:00;;;;;;;38.85;22.95;;;;;;;;;;4940199;28;20030;-87
2022/09/07 06:55:27;;;;;;;45.10;23.42;;;;;;;;;;4932483;28;20043;-87
2022/09/07 06:57:53;;;;;;;42.50;24.48;;;;;;;;;;4937963;28;20045;-87
2022/09/07 07:00:19;;;;;;;47.10;25.10;;;;;;;;;;4947221;28;20122;-87
2022/09/07 07:02:45;;;;;;;48.33;25.42;;;;;;;;;;4936345;28;20045;-87
2022/09/07 07:05:11;;;;;;;41.83;24.33;;;;;;;;;;4929806;28;20117;-88
2022/09/07 07:07:37;;;;;;;46.97;26.27;;;;;;;;;;4927739;28;20039;-87
2022/09/07 07:10:04;;;;;;;40.15;27.38;;;;;;;;;;4939434;28;20035;-87
2022/09/07 07:12:30;;;;;;;51.08;26.95;;;;;;;;;;4917551;28;20043;-86
2022/09/07 07:14:56;;;;;;;52.80;27.52;;;;;;;;;;4925555;28;20135;-86
2022/09/07 07:17:22;;;;;;;47.38;28.15;;;;;;;;;;4936315;28;20047;-87
2022/09/07 07:19:48;;;;;;;45.75;28.15;;;;;;;;;;4929304;28;20035;-86
2022/09/07 07:22:14;;;;;;;44.78;27.33;;;;;;;;;;4929446;28;20451;-87
2022/09/07 07:24:47;;;;;;;46.03;28.25;;;;;;;;;;4944125;28;20084;-88
2022/09/07 07:27:14;;;;;;;57.78;30.30;;;;;;;;;;4938244;28;20078;-87
2022/09/07 07:29:40;;;;;;;42.20;26.48;;;;;;;;;;4938983;28;20039;-87
2022/09/07 07:32:06;;;;;;;40.58;26.90;;;;;;;;;;4924600;28;20042;-86
2022/09/07 07:34:32;;;;;;;40.67;25.50;;;;;;;;;;4924181;28;20074;-89
2022/09/07 07:36:58;;;;;;;49.50;26.17;;;;;;;;;;4941882;28;20130;-85
2022/09/07 07:39:24;;;;;;;42.00;25.17;;;;;;;;;;4954517;28;20102;-87
2022/09/07 07:41:50;;;;;;;39.05;23.88;;;;;;;;;;4951891;28;20456;-87
2022/09/07 07:44:16;;;;;;;35.63;22.60;;;;;;;;;;4943365;28;20054;-87
2022/09/07 07:46:43;;;;;;;43.63;23.48;;;;;;;;;;4953193;28;20035;-87
2022/09/07 07:49:09;;;;;;;37.88;21.67;;;;;;;;;;4944178;28;20590;-87
2022/09/07 07:51:35;;;;;;;36.22;21.02;;;;;;;;;;4945002;28;20098;-88
2022/09/07 07:54:01;;;;;;;37.75;19.70;;;;;;;;;;4958453;28;20067;-87
2022/09/07 07:56:27;;;;;;;34.63;20.02;;;;;;;;;;4937060;28;20050;-87
2022/09/07 07:58:53;;;;;;;28.85;20.15;;;;;;;;;;4953286;28;20031;-87
2022/09/07 08:01:19;;;;;;;26.00;19.40;;;;;;;;;;4944125;28;20122;-87
2022/09/07 08:03:46;;;;;;;43.10;20.40;;;;;;;;;;4932631;28;20126;-87
2022/09/07 08:06:19;;;;;;;30.98;20.70;;;;;;;;;;4951189;28;20038;-88
2022/09/07 08:08:45;;;;;;;35.85;20.35;;;;;;;;;;4968491;28;20552;-87
2022/09/07 08:11:13;;;;;;;34.63;20.38;;;;;;;;;;4945899;28;20122;-86
2022/09/07 08:13:40;;;;;;;30.50;20.02;;;;;;;;;;4959861;28;20486;-89
2022/09/07 08:16:07;;;;;;;31.80;21.27;;;;;;;;;;4954586;28;20177;-88
2022/09/07 08:18:34;;;;;;;36.65;22.10;;;;;;;;;;4955042;28;20109;-88
2022/09/07 08:21:01;;;;;;;38.22;21.50;;;;;;;;;;4959261;28;20847;-88
2022/09/07 08:23:27;;;;;;;36.25;22.35;;;;;;;;;;4951479;28;20034;-87
2022/09/07 08:25:54;;;;;;;39.70;22.02;;;;;;;;;;4958573;28;20030;-87
2022/09/07 08:28:20;;;;;;;33.10;20.40;;;;;;;;;;4952911;28;20134;-87
2022/09/07 08:30:47;;;;;;;40.80;21.88;;;;;;;;;;4958330;28;20224;-88
2022/09/07 08:33:13;;;;;;;35.92;22.52;;;;;;;;;;4950643;28;20371;-88
2022/09/07 08:35:39;;;;;;;30.73;21.83;;;;;;;;;;4957814;28;20042;-88
2022/09/07 08:38:05;;;;;;;35.08;21.92;;;;;;;;;;4948543;28;20502;-87
2022/09/07 08:40:32;;;;;;;37.35;22.52;;;;;;;;;;4971303;28;20030;-87
2022/09/07 08:43:03;;;;;;;36.03;22.30;;;;;;;;;;4955932;28;20034;-88
2022/09/07 08:45:36;;;;;;;29.42;19.77;;;;;;;;;;4952530;28;20031;-88
2022/09/07 08:48:09;;;;;;;32.03;21.55;;;;;;;;;;4971498;28;20042;-88
2022/09/07 08:50:47;;;;;;;36.45;22.33;;;;;;;;;;4955862;28;20030;-87
2022/09/07 08:53:15;;;;;;;35.03;21.70;;;;;;;;;;4958321;28;20529;-87
2022/09/07 08:55:45;;;;;;;39.15;23.00;;;;;;;;;;4975292;28;20240;-86
2022/09/07 08:58:23;;;;;;;36.67;21.98;;;;;;;;;;4960276;28;20039;-87
2022/09/07 09:00:49;;;;;;;34.67;21.73;;;;;;;;;;4961188;28;20456;-87
2022/09/07 09:03:21;;;;;;;37.28;23.50;;;;;;;;;;4973977;28;20033;-87
2022/09/07 09:05:50;;;;;;;32.63;20.70;;;;;;;;;;4958778;28;20022;-87
2022/09/07 09:08:19;;;;;;;37.00;23.42;;;;;;;;;;4955531;28;20406;-87
2022/09/07 09:10:48;;;;;;;36.50;22.63;;;;;;;;;;4952255;28;20073;-87
2022/09/07 09:13:15;;;;;;;32.45;22.10;;;;;;;;;;4958047;28;20055;-90
2022/09/07 09:16:02;;;;;;;34.40;21.85;;;;;;;;;;4953223;28;20027;-86
2022/09/07 09:18:47;;;;;;;34.70;23.02;;;;;;;;;;4971046;28;20047;-87
2022/09/07 09:21:15;;;;;;;35.58;20.83;;;;;;;;;;4972012;28;20034;-86
2022/09/07 09:23:42;;;;;;;27.65;18.67;;;;;;;;;;4960675;28;20116;-85
2022/09/07 09:26:17;;;;;;;29.85;19.95;;;;;;;;;;4967573;28;20203;-86
2022/09/07 09:28:43;;;;;;;35.33;21.05;;;;;;;;;;4950678;28;20065;-86
2022/09/07 09:31:17;;;;;;;32.97;18.13;;;;;;;;;;4958586;28;20406;-86
2022/09/07 09:33:43;;;;;;;25.67;16.25;;;;;;;;;;4972043;28;20033;-86
2022/09/07 09:36:23;;;;;;;27.52;16.30;;;;;;;;;;4943447;28;20046;-87
2022/09/07 09:38:49;;;;;;;31.83;16.88;;;;;;;;;;4964281;28;20080;-86
2022/09/07 09:41:15;;;;;;;22.60;16.55;;;;;;;;;;4942617;28;20085;-87
2022/09/07 09:43:44;;;;;;;28.90;16.15;;;;;;;;;;4937888;28;20062;-86
2022/09/07 09:46:17;;;;;;;22.80;16.15;;;;;;;;;;4956477;28;21441;-87
2022/09/07 09:48:49;;;;;;;26.00;16.00;;;;;;;;;;4956528;28;20039;-86
2022/09/07 09:51:15;;;;;;;23.52;15.70;;;;;;;;;;4970970;28;20092;-86
2022/09/07 09:53:49;;;;;;;27.48;17.02;;;;;;;;;;4958759;28;20399;-86
2022/09/07 09:56:15;;;;;;;24.17;15.95;;;;;;;;;;4954255;28;20117;-86
2022/09/07 09:58:44;;;;;;;23.30;15.60;;;;;;;;;;4940882;28;20125;-86
2022/09/07 10:01:33;;;;;;;22.90;16.17;;;;;;;;;;4952415;28;20029;-86
2022/09/07 10:04:18;;;;;;;23.80;15.40;;;;;;;;;;4957933;28;20036;-87
2022/09/07 10:06:52;;;;;;;19.52;14.80;;;;;;;;;;4954614;28;20470;-85
2022/09/07 10:09:20;;;;;;;26.17;15.13;;;;;;;;;;4958441;28;20061;-87
2022/09/07 10:11:52;;;;;;;19.02;12.95;;;;;;;;;;4957010;28;20098;-87
2022/09/07 10:14:19;;;;;;;22.63;12.40;;;;;;;;;;4955716;28;20062;-87
2022/09/07 10:16:45;;;;;;;18.58;11.93;;;;;;;;;;4970091;28;20027;-86
2022/09/07 10:19:27;;;;;;;14.50;10.85;;;;;;;;;;4962561;28;20026;-85
2022/09/07 10:21:57;;;;;;;17.38;10.80;;;;;;;;;;4957925;28;20045;-86
2022/09/07 10:24:24;;;;;;;20.98;11.40;;;;;;;;;;4962438;28;20494;-86
2022/09/07 10:26:50;;;;;;;15.75;10.68;;;;;;;;;;4958744;28;20509;-87
2022/09/07 10:29:17;;;;;;;14.23;10.63;;;;;;;;;;4953946;28;20077;-87
2022/09/07 10:32:10;;;;;;;15.35;10.45;;;;;;;;;;4957528;28;20034;-87
2022/09/07 10:34:39;;;;;;;18.63;9.90;;;;;;;;;;4936466;28;20042;-87
2022/09/07 10:37:07;;;;;;;14.90;10.38;;;;;;;;;;4976463;28;20475;-86
2022/09/07 10:39:41;;;;;;;15.60;10.40;;;;;;;;;;4960181;28;20113;-87
2022/09/07 10:42:13;;;;;;;16.55;9.38;;;;;;;;;;4958656;28;20026;-86
2022/09/07 10:44:58;;;;;;;15.32;10.05;;;;;;;;;;4963645;28;20481;-85
2022/09/07 10:47:42;;;;;;;13.32;9.88;;;;;;;;;;4962838;28;20463;-86
2022/09/07 10:50:12;;;;;;;12.40;8.70;;;;;;;;;;4960749;28;20031;-86
2022/09/07 10:52:44;;;;;;;10.88;8.70;;;;;;;;;;4959598;28;20042;-87
2022/09/07 10:55:17;;;;;;;12.63;8.65;;;;;;;;;;4961333;28;20490;-86
2022/09/07 10:57:52;;;;;;;10.55;7.05;;;;;;;;;;4967539;28;20409;-86
2022/09/07 11:00:23;;;;;;;8.95;7.00;;;;;;;;;;4966833;28;20096;-86
2022/09/07 11:03:08;;;;;;;11.18;8.15;;;;;;;;;;4961203;28;20027;-85
2022/09/07 11:05:52;;;;;;;9.23;7.95;;;;;;;;;;4956281;28;20465;-87
2022/09/07 11:08:37;;;;;;;11.73;7.22;;;;;;;;;;4960861;28;20050;-86
2022/09/07 11:11:22;;;;;;;11.30;7.03;;;;;;;;;;4960670;28;20429;-86
2022/09/07 11:13:50;;;;;;;12.32;7.72;;;;;;;;;;4974533;28;20045;-86
2022/09/07 11:16:18;;;;;;;9.15;5.85;;;;;;;;;;4959814;28;20394;-86
2022/09/07 11:19:02;;;;;;;7.88;5.78;;;;;;;;;;4974684;28;21584;-85
2022/09/07 11:21:41;;;;;;;8.77;5.78;;;;;;;;;;4958709;28;20474;-86
2022/09/07 11:24:11;;;;;;;8.38;6.43;;;;;;;;;;4959930;28;20034;-86
2022/09/07 11:26:41;;;;;;;11.30;6.00;;;;;;;;;;4958895;28;20041;-86
2022/09/07 11:29:30;;;;;;;7.05;5.80;;;;;;;;;;4961224;28;20097;-88
2022/09/07 11:32:04;;;;;;;7.68;5.97;;;;;;;;;;4974766;28;20045;-86
2022/09/07 11:34:36;;;;;;;7.20;4.97;;;;;;;;;;4977441;28;20304;-87
2022/09/07 11:37:03;;;;;;;6.95;4.97;;;;;;;;;;4959987;28;20049;-86
2022/09/07 11:39:34;;;;;;;6.78;4.88;;;;;;;;;;4974142;28;20046;-86
2022/09/07 11:42:02;;;;;;;8.18;4.95;;;;;;;;;;4962077;28;20033;-86
2022/09/07 11:44:36;;;;;;;6.50;4.50;;;;;;;;;;4971572;28;20775;-88
2022/09/07 11:47:22;;;;;;;7.00;4.57;;;;;;;;;;4969499;28;20023;-86
2022/09/07 11:49:52;;;;;;;10.45;4.55;;;;;;;;;;4963065;28;20093;-88
2022/09/07 11:52:41;;;;;;;6.22;4.68;;;;;;;;;;4962438;28;20560;-87
2022/09/07 11:55:09;;;;;;;6.28;4.68;;;;;;;;;;4964151;28;20037;-86
2022/09/07 11:57:47;;;;;;;6.50;4.65;;;;;;;;;;4956673;28;20611;-85
2022/09/07 12:00:22;;;;;;;4.85;4.15;;;;;;;;;;4956822;28;20478;-86
2022/09/07 12:02:58;;;;;;;5.93;4.03;;;;;;;;;;4951474;28;20035;-86
2022/09/07 12:05:37;;;;;;;5.07;4.32;;;;;;;;;;4961813;28;20105;-86
2022/09/07 12:08:12;;;;;;;9.25;4.45;;;;;;;;;;4961430;28;20026;-85
2022/09/07 12:10:49;;;;;;;5.75;3.35;;;;;;;;;;4956396;28;20031;-87
2022/09/07 12:13:27;;;;;;;5.70;4.18;;;;;;;;;;4966495;28;20038;-84
2022/09/07 12:16:11;;;;;;;8.48;4.10;;;;;;;;;;4955503;28;20038;-85
2022/09/07 12:18:59;;;;;;;7.72;3.72;;;;;;;;;;4958578;28;20133;-87
2022/09/07 12:21:45;;;;;;;5.13;3.70;;;;;;;;;;4962466;28;20249;-85
2022/09/07 12:24:31;;;;;;;5.30;3.33;;;;;;;;;;4947632;28;20508;-87
2022/09/07 12:26:57;;;;;;;5.05;3.17;;;;;;;;;;4959310;28;20474;-86
2022/09/07 12:29:24;;;;;;;3.72;2.60;;;;;;;;;;4959832;28;20061;-86
2022/09/07 12:31:54;;;;;;;2.65;2.35;;;;;;;;;;4954271;28;20034;-87
2022/09/07 12:34:33;;;;;;;4.00;2.28;;;;;;;;;;4958028;28;20026;-85
2022/09/07 12:37:00;;;;;;;2.70;2.10;;;;;;;;;;4964157;28;20050;-86
2022/09/07 12:39:31;;;;;;;3.72;1.92;;;;;;;;;;4954977;28;20039;-87
2022/09/07 12:42:06;;;;;;;3.83;2.10;;;;;;;;;;4956072;28;20027;-86
2022/09/07 12:44:36;;;;;;;5.50;2.40;;;;;;;;;;4971979;28;20018;-87
2022/09/07 12:47:23;;;;;;;2.60;2.10;;;;;;;;;;4956815;28;20093;-87
2022/09/07 12:50:08;;;;;;;6.60;2.30;;;;;;;;;;4950334;28;20442;-85
2022/09/07 12:52:44;;;;;;;3.80;2.28;;;;;;;;;;4956165;28;20113;-85
2022/09/07 12:55:11;;;;;;;5.70;2.03;;;;;;;;;;4958085;28;20026;-87
2022/09/07 12:57:52;;;;;;;3.15;2.15;;;;;;;;;;4971561;28;20031;-86
2022/09/07 13:00:38;;;;;;;4.45;2.28;;;;;;;;;;4957450;28;20053;-86
2022/09/07 13:03:14;;;;;;;3.05;2.17;;;;;;;;;;4944526;28;20057;-86
2022/09/07 13:05:58;;;;;;;4.82;2.33;;;;;;;;;;4957212;28;20030;-86
2022/09/07 13:08:30;;;;;;;3.50;1.90;;;;;;;;;;4972907;28;20047;-86
2022/09/07 13:10:56;;;;;;;2.08;1.65;;;;;;;;;;4965019;28;20022;-86
2022/09/07 13:13:28;;;;;;;3.42;1.98;;;;;;;;;;4948656;28;20133;-86
2022/09/07 13:16:00;;;;;;;3.08;1.90;;;;;;;;;;4959522;28;20035;-85
2022/09/07 13:18:26;;;;;;;2.22;1.85;;;;;;;;;;4963387;28;20563;-86
2022/09/07 13:21:22;;;;;;;3.15;2.28;;;;;;;;;;4959960;28;20371;-86
2022/09/07 13:24:07;;;;;;;3.10;1.90;;;;;;;;;;4965515;28;20144;-85
2022/09/07 13:26:53;;;;;;;4.18;2.58;;;;;;;;;;4973752;28;20044;-85
2022/09/07 13:29:21;;;;;;;3.45;2.17;;;;;;;;;;4960330;28;20467;-85
2022/09/07 13:32:06;;;;;;;2.55;2.05;;;;;;;;;;4956405;28;20126;-85
2022/09/07 13:34:36;;;;;;;2.60;1.50;;;;;;;;;;4973800;28;20034;-86
2022/09/07 13:37:06;;;;;;;3.55;1.77;;;;;;;;;;4974345;28;20058;-86
2022/09/07 13:39:39;;;;;;;3.35;1.80;;;;;;;;;;4984136;28;21003;-88
2022/09/07 13:42:06;;;;;;;5.35;1.50;;;;;;;;;;4971938;28;20033;-86
2022/09/07 13:44:33;;;;;;;1.70;1.60;;;;;;;;;;4969393;28;20040;-86
2022/09/07 13:47:09;;;;;;;4.32;3.45;;;;;;;;;;4960142;28;20057;-85
2022/09/07 13:49:54;;;;;;;1.23;1.13;;;;;;;;;;4971320;28;20515;-87
2022/09/07 13:52:39;;;;;;;6.30;1.87;;;;;;;;;;4963182;28;20031;-86
2022/09/07 13:55:08;;;;;;;3.58;1.85;;;;;;;;;;4962712;28;20380;-85
2022/09/07 13:57:43;;;;;;;2.45;1.70;;;;;;;;;;4966298;28;20915;-86
2022/09/07 14:00:14;;;;;;;2.08;1.70;;;;;;;;;;4963656;28;20037;-86
2022/09/07 14:02:40;;;;;;;1.75;1.60;;;;;;;;;;4950027;28;20035;-85
2022/09/07 14:05:08;;;;;;;2.90;2.20;;;;;;;;;;4963403;28;21712;-86
2022/09/07 14:07:34;;;;;;;2.03;1.30;;;;;;;;;;4963633;28;20035;-86
2022/09/07 14:10:27;;;;;;;1.67;1.20;;;;;;;;;;4948883;28;20097;-87
2022/09/07 14:13:06;;;;;;;5.22;1.13;;;;;;;;;;4960445;28;20042;-86
2022/09/07 14:15:38;;;;;;;3.40;1.20;;;;;;;;;;4972853;28;20030;-86
2022/09/07 14:18:05;;;;;;;1.80;1.23;;;;;;;;;;4961163;28;20035;-85
2022/09/07 14:20:36;;;;;;;3.65;1.42;;;;;;;;;;4961242;28;20136;-85
2022/09/07 14:23:34;;;;;;;2.67;1.70;;;;;;;;;;4979466;28;20035;-85
2022/09/07 14:26:14;;;;;;;3.28;1.58;;;;;;;;;;4954058;28;20086;-86
2022/09/07 14:28:41;;;;;;;3.60;1.42;;;;;;;;;;4954122;28;20492;-86
2022/09/07 14:31:11;;;;;;;5.13;1.58;;;;;;;;;;4956062;28;20762;-85
2022/09/07 14:33:37;;;;;;;3.30;1.65;;;;;;;;;;4962862;28;20035;-84
2022/09/07 14:36:04;;;;;;;2.85;1.67;;;;;;;;;;4960152;28;20544;-86
2022/09/07 14:38:33;;;;;;;2.28;1.38;;;;;;;;;;4958230;28;20039;-84
2022/09/07 14:41:01;;;;;;;2.72;1.60;;;;;;;;;;4959366;28;20111;-85
2022/09/07 14:43:32;;;;;;;2.63;1.55;;;;;;;;;;4957255;28;20039;-87